Time;durP1;ratioP1;P1;durP2;ratioP2;P2;SDS_P1;SDS_P2;PMS_P1;PMS_P2;Temp;Humidity;BMP_temperature;BMP_pressure;BME280_temperature;BME280_humidity;BME280_pressure;Samples;Min_cycle;Max_cycle;Signal;HPM_P1;HPM_P2
2023/08/23 00:01:04;;;;;;;6.20;5.60;;;24.60;99.90;;;25.29;63.88;100916.66;4972098;28;20679;-63
2023/08/23 00:03:47;;;;;;;7.03;6.33;;;24.60;99.90;;;25.29;63.54;100916.66;4991838;28;20737;-63
2023/08/23 00:06:14;;;;;;;5.50;5.00;;;24.60;99.90;;;25.28;63.23;100915.00;4985286;28;20705;-63
2023/08/23 00:08:41;;;;;;;6.03;5.07;;;24.60;99.90;;;25.27;63.34;100910.69;4982688;28;20640;-63
2023/08/23 00:11:08;;;;;;;6.97;6.27;;;24.60;99.90;;;25.23;63.60;100907.63;4976668;28;20657;-62
2023/08/23 00:13:35;;;;;;;5.33;4.87;;;24.60;99.90;;;25.23;63.74;100917.47;4975191;28;20643;-63
2023/08/23 00:16:01;;;;;;;8.70;5.20;;;24.50;99.90;;;25.21;63.70;100920.31;4987542;28;21382;-63
2023/08/23 00:18:28;;;;;;;6.33;5.73;;;24.50;99.90;;;25.22;63.44;100915.81;4977998;28;20735;-63
2023/08/23 00:20:55;;;;;;;6.03;5.47;;;24.50;99.90;;;25.19;63.39;100919.69;4988772;28;20649;-63
2023/08/23 00:23:22;;;;;;;6.27;4.93;;;24.50;99.90;;;25.20;63.19;100908.00;4982785;28;20642;-63
2023/08/23 00:25:49;;;;;;;5.77;5.30;;;24.50;99.90;;;25.16;63.85;100909.44;4988811;28;20698;-62
2023/08/23 00:28:19;;;;;;;7.20;4.83;;;24.50;99.90;;;25.13;63.86;100914.34;4974570;28;20767;-63
2023/08/23 00:30:54;;;;;;;12.87;5.80;;;24.40;99.90;;;25.08;63.61;100924.78;4984545;28;20654;-63
2023/08/23 00:33:21;;;;;;;33.70;8.30;;;24.40;99.90;;;25.02;64.26;100921.03;4990589;28;20678;-63
2023/08/23 00:35:49;;;;;;;8.47;7.10;;;24.40;99.90;;;24.99;64.48;100917.94;4969156;28;20637;-63
2023/08/23 00:38:16;;;;;;;5.03;4.67;;;24.30;99.90;;;24.98;64.23;100910.97;4976524;28;20663;-63
2023/08/23 00:40:43;;;;;;;5.97;4.10;;;24.30;99.90;;;24.98;64.21;100903.78;4986073;28;20952;-62
2023/08/23 00:43:11;;;;;;;3.50;3.20;;;24.30;99.90;;;24.99;63.74;100910.78;4983853;28;21274;-62
2023/08/23 00:45:40;;;;;;;4.07;3.67;;;24.30;99.90;;;24.99;63.91;100917.94;4989042;28;20634;-63
2023/08/23 00:48:09;;;;;;;4.20;3.50;;;24.30;99.90;;;24.96;64.12;100916.50;5005198;28;20633;-63
2023/08/23 00:50:38;;;;;;;4.07;3.67;;;24.30;99.90;;;24.99;63.90;100923.28;4992271;28;21177;-63
2023/08/23 00:53:07;;;;;;;4.23;3.70;;;24.30;99.90;;;24.97;64.09;100918.16;4998806;28;20727;-63
2023/08/23 00:55:35;;;;;;;3.20;3.00;;;24.30;99.90;;;24.95;64.20;100916.69;4980816;28;20724;-62
2023/08/23 00:58:04;;;;;;;3.83;3.53;;;24.20;99.90;;;24.91;64.65;100923.44;4989975;28;20666;-62
2023/08/23 01:00:31;;;;;;;4.20;3.80;;;24.20;99.90;;;24.87;64.47;100927.53;4984115;28;20668;-63
2023/08/23 01:02:58;;;;;;;3.60;3.30;;;24.20;99.90;;;24.79;64.82;100925.03;4981419;28;21197;-63
2023/08/23 01:06:06;;;;;;;5.00;4.10;;;24.10;99.90;;;24.75;65.06;100921.91;4985091;28;20647;-63
2023/08/23 01:09:08;;;;;;;3.57;3.30;;;24.10;99.90;;;24.76;64.78;100926.22;4968633;28;20651;-63
2023/08/23 01:12:22;;;;;;;3.70;3.50;;;24.10;99.90;;;24.75;65.22;100924.56;4995596;28;20658;-63
2023/08/23 01:15:03;;;;;;;3.57;3.27;;;24.10;99.90;;;24.77;65.21;100927.06;4976755;28;20723;-63
2023/08/23 01:17:31;;;;;;;3.67;3.27;;;24.10;99.90;;;24.72;65.07;100924.94;4965320;28;20630;-62
2023/08/23 01:19:59;;;;;;;3.77;3.47;;;24.00;99.90;;;24.68;65.51;100919.16;4997685;28;20623;-62
2023/08/23 01:22:30;;;;;;;5.80;3.47;;;24.00;99.90;;;24.64;65.14;100928.56;4989701;28;21103;-63
2023/08/23 01:24:57;;;;;;;3.33;3.07;;;24.00;99.90;;;24.60;65.69;100918.47;4984719;28;20702;-62
2023/08/23 01:27:24;;;;;;;3.40;3.10;;;23.90;99.90;;;24.54;65.76;100921.91;5000099;28;20996;-62
2023/08/23 01:29:51;;;;;;;3.37;3.10;;;23.90;99.90;;;24.52;65.26;100915.97;4992877;28;20659;-63
2023/08/23 01:32:34;;;;;;;3.60;3.30;;;23.90;99.90;;;24.52;65.52;100908.78;4979763;28;20789;-62
2023/08/23 01:35:15;;;;;;;3.73;3.43;;;23.90;99.90;;;24.52;65.70;100903.44;4981567;28;20639;-62
2023/08/23 01:37:46;;;;;;;4.30;3.90;;;23.90;99.90;;;24.51;65.21;100903.66;4992288;28;20650;-62
2023/08/23 01:40:15;;;;;;;5.93;4.03;;;23.90;99.90;;;24.46;65.61;100906.91;4985570;28;21034;-62
2023/08/23 01:42:43;;;;;;;4.03;3.63;;;23.80;99.90;;;24.42;66.14;100905.63;4996110;28;20792;-62
2023/08/23 01:45:10;;;;;;;4.13;3.73;;;23.70;99.90;;;24.41;66.21;100911.97;4979742;28;20654;-63
2023/08/23 01:47:37;;;;;;;3.97;3.67;;;23.70;99.90;;;24.37;65.87;100908.06;4975364;28;20667;-63
2023/08/23 01:50:05;;;;;;;4.83;3.80;;;23.70;99.90;;;24.33;66.39;100908.63;4981033;28;20634;-62
2023/08/23 01:52:32;;;;;;;3.80;3.50;;;23.60;99.90;;;24.33;66.04;100912.13;4983998;28;21106;-62
2023/08/23 01:54:59;;;;;;;3.53;3.33;;;23.70;99.90;;;24.32;66.17;100918.47;4991966;28;20655;-63
2023/08/23 01:57:26;;;;;;;4.13;3.73;;;23.70;99.90;;;24.27;66.42;100918.22;4976063;28;20734;-63
2023/08/23 01:59:55;;;;;;;3.70;3.40;;;23.60;99.90;;;24.24;66.38;100918.59;4970719;28;20685;-63
2023/08/23 02:02:22;;;;;;;4.90;3.80;;;23.60;99.90;;;24.16;66.69;100917.91;4989568;28;20642;-62
2023/08/23 02:04:49;;;;;;;3.87;3.50;;;23.50;99.90;;;24.10;67.75;100910.69;4985029;28;20634;-63
2023/08/23 02:07:16;;;;;;;5.20;4.10;;;23.50;99.90;;;24.09;67.46;100920.50;4988555;28;20674;-62
2023/08/23 02:09:43;;;;;;;5.97;4.23;;;23.40;99.90;;;24.04;67.51;100914.94;4984045;28;21265;-62
2023/08/23 02:12:10;;;;;;;5.33;4.67;;;23.40;99.90;;;23.99;68.01;100914.66;4968275;28;21275;-62
2023/08/23 02:14:37;;;;;;;4.20;3.80;;;23.40;99.90;;;23.94;68.31;100910.91;4984000;28;20633;-63
2023/08/23 02:17:04;;;;;;;3.07;2.87;;;23.30;99.90;;;23.95;68.38;100909.88;4980115;28;20649;-64
2023/08/23 02:19:31;;;;;;;4.37;4.07;;;23.30;99.90;;;23.95;67.73;100905.38;4990265;28;20677;-63
2023/08/23 02:21:57;;;;;;;3.63;3.30;;;23.30;99.90;;;23.97;68.17;100910.50;4987887;28;20737;-63
2023/08/23 02:24:24;;;;;;;4.27;3.57;;;23.30;99.90;;;24.00;68.21;100905.63;4987820;28;20649;-62
2023/08/23 02:26:51;;;;;;;3.83;3.53;;;23.30;99.90;;;23.99;67.95;100906.66;4984024;28;20762;-63
2023/08/23 02:29:18;;;;;;;3.90;3.60;;;23.30;99.90;;;24.03;68.00;100907.91;4967588;28;20642;-63
2023/08/23 02:31:45;;;;;;;4.30;3.90;;;23.40;99.90;;;24.00;68.13;100899.50;4971466;28;20682;-63
2023/08/23 02:34:12;;;;;;;5.70;4.53;;;23.30;99.90;;;23.95;67.82;100900.06;4978492;28;20643;-63
2023/08/23 02:36:39;;;;;;;4.07;3.70;;;23.30;99.90;;;23.92;68.20;100890.59;4970656;28;20642;-63
2023/08/23 02:39:06;;;;;;;4.53;3.87;;;23.30;99.90;;;23.95;68.11;100896.56;4980937;28;20734;-63
2023/08/23 02:41:33;;;;;;;5.33;4.80;;;23.30;99.90;;;23.94;68.29;100893.06;4980816;28;20662;-63
2023/08/23 02:44:00;;;;;;;5.10;4.60;;;23.30;99.90;;;23.97;68.08;100890.03;4982167;28;20734;-63
2023/08/23 02:46:27;;;;;;;6.63;5.33;;;23.30;99.90;;;24.00;68.37;100889.63;4998616;28;20674;-63
2023/08/23 02:48:54;;;;;;;5.97;5.30;;;23.30;99.90;;;24.06;67.80;100891.59;4981413;28;20641;-63
2023/08/23 02:51:21;;;;;;;6.10;5.50;;;23.40;99.90;;;24.09;67.73;100888.53;4984160;28;20654;-62
2023/08/23 02:53:48;;;;;;;4.90;4.20;;;23.40;99.90;;;24.12;67.45;100888.16;4988819;28;21110;-63
2023/08/23 02:56:15;;;;;;;4.97;4.47;;;23.40;99.90;;;24.14;67.33;100883.44;4973011;28;20738;-63
2023/08/23 02:58:42;;;;;;;4.27;3.87;;;23.40;99.90;;;24.18;67.20;100890.03;4977205;28;21015;-63
2023/08/23 03:01:09;;;;;;;6.00;5.37;;;23.50;99.90;;;24.19;66.75;100882.88;4984632;28;20660;-63
2023/08/23 03:03:36;;;;;;;5.07;4.57;;;23.50;99.90;;;24.19;66.99;100889.00;4984874;28;20626;-63
2023/08/23 03:06:03;;;;;;;4.73;4.23;;;23.50;99.90;;;24.17;66.69;100891.03;4989942;28;21295;-63
2023/08/23 03:08:30;;;;;;;6.03;4.43;;;23.50;99.90;;;24.10;66.97;100897.34;4994220;28;20658;-63
2023/08/23 03:11:07;;;;;;;5.70;4.10;;;23.40;99.90;;;24.07;67.45;100895.88;4970047;28;20782;-62
2023/08/23 03:13:34;;;;;;;3.57;3.27;;;23.40;99.90;;;24.03;67.66;100891.94;5002580;28;20833;-63
2023/08/23 03:16:01;;;;;;;4.10;3.80;;;23.40;99.90;;;24.00;67.51;100902.94;5006618;28;20717;-63
2023/08/23 03:18:30;;;;;;;5.07;4.03;;;23.40;99.90;;;23.97;67.64;100887.34;4994084;28;20622;-62
2023/08/23 03:20:57;;;;;;;4.47;4.07;;;23.30;99.90;;;23.92;68.09;100895.09;4983295;28;21258;-63
2023/08/23 03:23:24;;;;;;;4.40;3.90;;;23.30;99.90;;;23.91;68.02;100893.47;4989903;28;20690;-63
2023/08/23 03:25:51;;;;;;;4.73;3.80;;;23.30;99.90;;;23.86;68.88;100890.53;4988270;28;20719;-62
2023/08/23 03:28:18;;;;;;;4.27;3.87;;;23.20;99.90;;;23.82;68.58;100891.94;4992337;28;20666;-63
2023/08/23 03:30:44;;;;;;;4.00;3.67;;;23.20;99.90;;;23.75;69.16;100891.84;5002884;28;20666;-62
2023/08/23 03:33:11;;;;;;;4.37;3.97;;;23.10;99.90;;;23.70;69.35;100896.91;4989744;28;20641;-63
2023/08/23 03:35:38;;;;;;;4.17;3.77;;;23.10;99.90;;;23.64;69.43;100903.00;4969087;28;21016;-62
2023/08/23 03:38:05;;;;;;;5.20;4.17;;;23.00;99.90;;;23.58;69.64;100902.91;4987750;28;21214;-62
2023/08/23 03:40:37;;;;;;;5.83;4.30;;;23.00;99.90;;;23.53;69.60;100900.00;4986969;28;20720;-62
2023/08/23 03:43:05;;;;;;;4.90;3.67;;;22.90;99.90;;;23.47;70.31;100895.44;4989452;28;20688;-62
2023/08/23 03:45:33;;;;;;;6.87;4.27;;;22.90;99.90;;;23.39;70.31;100899.03;4990951;28;20658;-62
2023/08/23 03:48:00;;;;;;;3.93;3.60;;;22.80;99.90;;;23.32;70.50;100900.75;5001567;28;20665;-62
2023/08/23 03:50:27;;;;;;;8.53;4.53;;;22.70;99.90;;;23.23;71.44;100899.22;4993239;28;20620;-62
2023/08/23 03:52:54;;;;;;;5.87;4.00;;;22.60;99.90;;;23.21;71.29;100900.41;4992767;28;20730;-62
2023/08/23 03:55:21;;;;;;;5.00;4.40;;;22.60;99.90;;;23.17;71.36;100893.81;4989623;28;21139;-62
2023/08/23 03:57:50;;;;;;;5.47;3.80;;;22.60;99.90;;;23.13;71.62;100896.81;4992692;28;20805;-62
2023/08/23 04:00:17;;;;;;;10.80;5.10;;;22.50;99.90;;;23.16;71.52;100898.28;4981997;28;20650;-62
2023/08/23 04:02:45;;;;;;;7.97;5.57;;;22.60;99.90;;;23.19;71.62;100891.78;4979369;28;20643;-63
2023/08/23 04:05:12;;;;;;;5.47;4.87;;;22.60;99.90;;;23.23;71.64;100887.72;5003074;28;20634;-62
2023/08/23 04:07:40;;;;;;;6.73;5.27;;;22.60;99.90;;;23.27;71.06;100889.00;4985774;28;21208;-62
2023/08/23 04:10:08;;;;;;;5.93;4.90;;;22.60;99.90;;;23.30;71.00;100883.31;5001758;28;20639;-63
2023/08/23 04:12:35;;;;;;;4.57;4.10;;;22.60;99.90;;;23.31;71.04;100879.63;4996004;28;20616;-63
2023/08/23 04:15:03;;;;;;;5.37;4.43;;;22.70;99.90;;;23.33;70.69;100880.31;4982789;28;20639;-63
2023/08/23 04:17:30;;;;;;;5.10;4.53;;;22.70;99.90;;;23.34;70.80;100884.63;4982813;28;20674;-63
2023/08/23 04:19:57;;;;;;;6.70;5.30;;;22.60;99.90;;;23.34;70.76;100884.63;4989800;28;20634;-62
2023/08/23 04:22:24;;;;;;;5.60;4.97;;;22.60;99.90;;;23.32;71.03;100886.63;5002991;28;20669;-62
2023/08/23 04:24:51;;;;;;;5.07;4.57;;;22.70;99.90;;;23.32;70.72;100892.75;4969123;28;20685;-62
2023/08/23 04:27:18;;;;;;;5.30;3.97;;;22.70;99.90;;;23.31;70.76;100892.94;4978490;28;20674;-62
2023/08/23 04:29:45;;;;;;;3.93;3.63;;;22.70;99.90;;;23.28;70.75;100903.94;4979278;28;20638;-63
2023/08/23 04:32:12;;;;;;;4.53;3.83;;;22.70;99.90;;;23.26;70.79;100895.34;4981877;28;20682;-63
2023/08/23 04:34:40;;;;;;;7.00;4.17;;;22.70;99.90;;;23.23;71.23;100899.22;4975616;28;21244;-62
2023/08/23 04:37:07;;;;;;;4.27;3.87;;;22.60;99.90;;;23.22;71.13;100902.88;4973487;28;21253;-62
2023/08/23 04:39:34;;;;;;;5.40;4.20;;;22.60;99.90;;;23.22;71.34;100904.69;4981063;28;20680;-62
2023/08/23 04:42:02;;;;;;;3.37;3.10;;;22.60;99.90;;;23.17;71.77;100904.44;4987056;28;20658;-62
2023/08/23 04:44:29;;;;;;;3.37;3.07;;;22.60;99.90;;;23.13;71.67;100893.31;4996716;28;20622;-62
2023/08/23 04:46:58;;;;;;;3.93;3.60;;;22.50;99.90;;;23.09;71.51;100898.22;4982343;28;20742;-63
2023/08/23 04:49:25;;;;;;;3.93;3.60;;;22.50;99.90;;;23.09;71.63;100900.88;4995356;28;20639;-62
2023/08/23 04:51:52;;;;;;;5.33;4.83;;;22.50;99.90;;;23.09;71.30;100892.06;4984624;28;20690;-63
2023/08/23 04:54:19;;;;;;;4.47;4.00;;;22.50;99.90;;;23.11;71.13;100900.66;4979271;28;21097;-62
2023/08/23 04:56:46;;;;;;;4.13;3.77;;;22.50;99.90;;;23.14;71.46;100898.50;4987817;28;20997;-62
2023/08/23 04:59:12;;;;;;;4.00;3.67;;;22.50;99.90;;;23.17;71.31;100900.75;4985864;28;20642;-62
2023/08/23 05:01:39;;;;;;;5.10;4.20;;;22.60;99.90;;;23.22;70.91;100902.88;4981613;28;20705;-62
2023/08/23 05:04:07;;;;;;;4.80;3.33;;;22.60;99.90;;;23.32;70.85;100905.25;4983187;28;20619;-62
2023/08/23 05:06:37;;;;;;;4.40;4.00;;;22.70;99.90;;;23.42;70.01;100897.84;4983946;28;20641;-62
2023/08/23 05:09:04;;;;;;;5.40;4.40;;;22.80;99.90;;;23.52;69.54;100893.03;4990103;28;20626;-62
2023/08/23 05:11:32;;;;;;;4.27;3.90;;;22.80;99.90;;;23.62;69.11;100891.72;4975070;28;20681;-63
2023/08/23 05:13:59;;;;;;;5.50;4.23;;;23.00;99.90;;;23.76;69.16;100898.00;4984864;28;20630;-62
2023/08/23 05:16:26;;;;;;;3.70;3.40;;;23.10;99.90;;;23.90;68.24;100902.44;4980207;28;21032;-63
2023/08/23 05:18:53;;;;;;;4.47;3.80;;;23.20;99.90;;;24.06;68.03;100904.91;4985377;28;20626;-62
2023/08/23 05:21:20;;;;;;;4.70;4.17;;;23.40;99.90;;;24.24;66.86;100907.94;4972396;28;21111;-63
2023/08/23 05:23:47;;;;;;;3.90;3.60;;;23.50;99.90;;;24.49;65.98;100905.69;4983992;28;21250;-63
2023/08/23 05:26:14;;;;;;;3.73;3.43;;;23.80;99.90;;;24.74;65.47;100906.06;4979825;28;20646;-63
2023/08/23 05:28:41;;;;;;;3.27;3.00;;;24.00;99.90;;;24.97;64.91;100906.66;4985765;28;20717;-63
2023/08/23 05:31:08;;;;;;;3.90;3.60;;;24.20;99.90;;;25.13;63.76;100901.00;4976090;28;20690;-63
2023/08/23 05:33:35;;;;;;;3.87;3.47;;;24.40;99.90;;;25.38;63.18;100910.16;4991219;28;20700;-63
2023/08/23 05:36:02;;;;;;;3.17;2.97;;;24.60;99.90;;;25.66;62.08;100923.44;5002979;28;20688;-62
2023/08/23 05:38:29;;;;;;;3.53;3.23;;;24.90;99.90;;;25.80;61.03;100920.59;4991320;28;20665;-63
2023/08/23 05:40:56;;;;;;;3.73;3.47;;;25.10;99.90;;;26.02;60.76;100921.25;4967390;28;20725;-62
2023/08/23 05:43:23;;;;;;;3.63;3.37;;;25.30;99.90;;;26.29;59.95;100924.78;4976364;28;20646;-64
2023/08/23 05:45:54;;;;;;;3.77;3.40;;;25.60;99.90;;;26.48;58.89;100923.97;4986042;28;20642;-63
2023/08/23 05:48:22;;;;;;;3.30;3.10;;;25.80;99.90;;;26.75;58.46;100922.94;4974847;28;20662;-63
2023/08/23 05:50:49;;;;;;;2.77;2.67;;;26.00;99.90;;;27.08;57.31;100920.19;4975290;28;20696;-63
2023/08/23 05:53:19;;;;;;;3.83;3.50;;;26.40;99.90;;;27.34;56.72;100918.25;4971573;28;20651;-63
2023/08/23 05:55:48;;;;;;;3.77;3.47;;;26.60;99.90;;;27.64;55.82;100922.03;4968754;28;20641;-63
2023/08/23 05:58:18;;;;;;;3.90;3.60;;;26.90;99.90;;;28.07;54.58;100921.41;5004728;28;20638;-63
2023/08/23 06:00:48;;;;;;;5.17;4.33;;;27.30;99.90;;;28.49;53.53;100926.03;4964226;28;21059;-63
2023/08/23 06:03:15;;;;;;;5.67;4.40;;;27.70;99.90;;;28.88;52.18;100930.22;4966037;28;20639;-63
2023/08/23 06:05:44;;;;;;;4.00;3.63;;;28.10;99.90;;;29.27;51.42;100924.44;4959896;28;21324;-63
2023/08/23 06:08:11;;;;;;;4.30;4.00;;;28.50;99.90;;;29.64;50.54;100931.44;4961898;28;20667;-63
2023/08/23 06:10:37;;;;;;;4.03;3.70;;;28.90;99.60;;;29.98;49.40;100940.69;4966701;28;20659;-63
2023/08/23 06:13:05;;;;;;;3.30;3.10;;;29.30;98.90;;;30.44;48.52;100937.28;4981632;28;20720;-63
2023/08/23 06:15:32;;;;;;;3.40;3.20;;;29.70;98.20;;;30.94;47.66;100943.06;4975735;28;20639;-62
2023/08/23 06:17:59;;;;;;;4.33;4.03;;;30.20;97.30;;;31.24;46.94;100952.63;4979833;28;20692;-63
2023/08/23 06:20:26;;;;;;;4.00;3.73;;;30.50;96.40;;;31.67;45.91;100941.38;4980551;28;20730;-63
2023/08/23 06:22:53;;;;;;;5.17;4.77;;;30.90;95.70;;;32.24;44.64;100952.16;4974562;28;20623;-63
2023/08/23 06:25:20;;;;;;;4.00;3.70;;;31.40;94.80;;;32.83;42.95;100954.19;4981172;28;20729;-63
2023/08/23 06:27:47;;;;;;;3.80;3.50;;;32.00;93.80;;;33.38;42.13;100957.69;4972046;28;21233;-63
2023/08/23 06:30:17;;;;;;;5.37;4.00;;;32.50;92.80;;;33.78;41.68;100951.13;4970469;28;20647;-63
2023/08/23 06:32:48;;;;;;;4.17;3.87;;;33.00;91.60;;;34.24;39.97;100950.50;4976549;28;20789;-63
2023/08/23 06:35:17;;;;;;;3.50;3.30;;;33.50;90.60;;;34.73;39.49;100951.19;4971114;28;20638;-62
2023/08/23 06:37:44;;;;;;;3.67;3.47;;;34.00;88.70;;;35.12;39.19;100954.41;4968575;28;20659;-63
2023/08/23 06:40:13;;;;;;;4.40;4.00;;;34.40;87.00;;;35.70;37.56;100948.66;4993935;28;20662;-68
2023/08/23 06:42:40;;;;;;;4.00;3.80;;;34.90;84.60;;;36.13;36.77;100953.66;5005002;28;20640;-69
2023/08/23 06:45:09;;;;;;;4.37;4.07;;;35.40;82.20;;;36.45;36.11;100975.13;4971133;28;20694;-69
2023/08/23 06:47:39;;;;;;;3.33;3.20;;;35.70;80.60;;;36.71;35.84;100970.50;4972137;28;20733;-71
2023/08/23 06:50:07;;;;;;;4.47;4.07;;;36.00;79.10;;;36.93;35.25;100968.31;4980455;28;21092;-69
2023/08/23 06:52:40;;;;;;;3.07;2.87;;;36.20;77.90;;;37.27;34.90;100969.25;4992992;28;21065;-69
2023/08/23 06:55:07;;;;;;;3.10;2.90;;;36.40;76.50;;;37.26;34.51;100967.66;4982491;28;21184;-69
2023/08/23 06:57:34;;;;;;;3.13;2.93;;;36.50;75.70;;;37.22;35.34;100967.41;4990135;28;20641;-69
2023/08/23 07:00:01;;;;;;;2.50;2.40;;;36.50;74.70;;;36.92;35.45;100963.94;4997457;28;21064;-70
2023/08/23 07:02:28;;;;;;;4.00;3.70;;;36.20;75.20;;;36.81;36.00;100954.16;4993612;28;20753;-69
2023/08/23 07:04:55;;;;;;;3.40;2.87;;;36.10;74.90;;;36.91;34.99;100948.75;4993649;28;20734;-69
2023/08/23 07:07:22;;;;;;;4.00;3.80;;;36.10;74.20;;;36.78;35.41;100952.78;4977883;28;20765;-69
2023/08/23 07:09:50;;;;;;;2.50;2.40;;;36.00;73.90;;;36.97;35.63;100956.56;4982793;28;20643;-70
2023/08/23 07:12:17;;;;;;;2.57;2.43;;;36.10;74.30;;;36.78;35.15;100952.00;4986687;28;20719;-68
2023/08/23 07:14:46;;;;;;;3.43;3.27;;;36.10;72.90;;;36.74;35.09;100959.88;4997962;28;21494;-69
2023/08/23 07:17:14;;;;;;;2.73;2.63;;;36.10;72.90;;;36.96;35.13;100968.56;5007447;28;20649;-68
2023/08/23 07:19:41;;;;;;;3.00;2.90;;;36.20;72.50;;;37.31;35.01;100981.25;4985122;28;20674;-68
2023/08/23 07:22:08;;;;;;;3.10;2.90;;;36.50;71.80;;;37.13;34.84;100963.63;4996920;28;20723;-68
2023/08/23 07:24:35;;;;;;;2.90;2.80;;;36.60;71.20;;;37.23;35.00;100962.75;4985637;28;20638;-69
2023/08/23 07:27:02;;;;;;;3.67;3.47;;;36.60;71.20;;;37.28;34.93;100973.63;4990541;28;21163;-68
2023/08/23 07:29:29;;;;;;;3.20;3.10;;;36.70;70.90;;;37.51;34.36;100970.28;4999392;28;20674;-68
2023/08/23 07:31:59;;;;;;;3.87;3.60;;;36.80;70.20;;;37.78;33.96;100967.16;5006145;28;20736;-68
2023/08/23 07:34:26;;;;;;;3.23;3.10;;;37.10;70.00;;;37.77;33.91;100974.50;5001688;28;21112;-69
2023/08/23 07:36:54;;;;;;;2.57;2.47;;;37.20;69.70;;;37.94;33.99;100974.97;4984401;28;20639;-68
2023/08/23 07:39:21;;;;;;;2.83;2.73;;;37.40;69.10;;;38.25;33.82;100977.50;4980760;28;20642;-69
2023/08/23 07:41:48;;;;;;;2.27;2.17;;;37.70;68.80;;;38.50;32.93;100974.53;4989275;28;21127;-68
2023/08/23 07:44:15;;;;;;;2.80;2.70;;;37.90;67.80;;;38.73;32.61;100966.44;4996782;28;20648;-68
2023/08/23 07:46:42;;;;;;;3.23;3.13;;;38.20;67.60;;;38.86;32.59;100973.13;4986635;28;21216;-69
2023/08/23 07:49:09;;;;;;;2.70;2.60;;;38.40;66.60;;;38.96;32.54;100986.63;4984684;28;20678;-69
2023/08/23 07:51:36;;;;;;;2.53;2.43;;;38.60;66.20;;;38.69;32.16;100986.38;4976984;28;20708;-69
2023/08/23 07:54:03;;;;;;;3.40;3.10;;;38.50;65.50;;;38.38;33.16;100974.09;4985928;28;20709;-69
2023/08/23 07:56:30;;;;;;;2.67;2.57;;;38.30;65.60;;;38.55;33.14;100979.91;4990666;28;20660;-69
2023/08/23 07:58:57;;;;;;;2.53;2.53;;;38.40;65.80;;;38.76;32.68;100984.13;4999656;28;20814;-68
2023/08/23 08:01:24;;;;;;;2.00;1.90;;;38.70;65.40;;;39.17;32.30;100984.50;4985158;28;20670;-69
2023/08/23 08:04:00;;;;;;;2.87;2.77;;;39.00;64.80;;;39.68;31.62;100987.44;4994616;28;20619;-69
2023/08/23 08:06:28;;;;;;;3.30;3.20;;;39.50;64.10;;;40.19;31.25;100988.31;4984760;28;20677;-69
2023/08/23 08:08:55;;;;;;;3.27;3.17;;;40.10;63.10;;;40.54;30.26;100986.94;4976509;28;21103;-69
2023/08/23 08:11:21;;;;;;;3.00;2.90;;;40.50;62.10;;;40.88;29.86;100990.97;4990653;28;20662;-68
2023/08/23 08:13:48;;;;;;;3.30;3.20;;;40.80;61.40;;;41.21;28.85;100993.63;4978261;28;20743;-68
2023/08/23 08:16:15;;;;;;;2.60;2.60;;;41.10;60.40;;;41.63;28.61;100993.28;5000038;28;20627;-70
2023/08/23 08:18:43;;;;;;;2.20;2.20;;;41.60;59.60;;;41.21;28.90;100993.63;4978980;28;20725;-69
2023/08/23 08:21:10;;;;;;;2.10;2.00;;;41.50;59.00;;;41.32;28.69;100982.16;4998742;28;21041;-70
2023/08/23 08:23:37;;;;;;;2.10;2.10;;;41.50;58.60;;;41.81;28.57;100989.59;4978417;28;20642;-70
2023/08/23 08:26:06;;;;;;;2.90;2.80;;;41.90;58.60;;;42.17;28.16;100984.91;4983428;28;20666;-69
2023/08/23 08:28:33;;;;;;;2.07;2.07;;;42.20;57.80;;;42.51;27.42;100989.81;5003762;28;20765;-70
2023/08/23 08:31:00;;;;;;;2.20;2.20;;;42.60;56.80;;;42.60;27.35;100989.88;4994433;28;20665;-70
2023/08/23 08:33:27;;;;;;;2.30;2.20;;;42.80;56.10;;;42.63;27.31;100984.59;4974630;28;20740;-70
2023/08/23 08:35:54;;;;;;;2.07;2.07;;;42.80;56.30;;;43.10;27.03;100985.78;4993683;28;20626;-70
2023/08/23 08:38:22;;;;;;;2.37;2.27;;;43.10;55.90;;;43.64;26.20;100990.78;4965955;28;20690;-70
2023/08/23 08:40:49;;;;;;;2.80;2.70;;;43.60;55.40;;;43.87;25.86;100975.75;4989233;28;20755;-70
2023/08/23 08:43:18;;;;;;;2.53;2.43;;;43.90;54.40;;;43.77;25.96;100986.25;5003135;28;20664;-70
2023/08/23 08:45:45;;;;;;;3.10;3.00;;;44.10;54.20;;;43.58;26.13;100975.56;4983439;28;21064;-68
2023/08/23 08:48:12;;;;;;;2.43;2.43;;;43.80;54.10;;;43.97;25.71;100982.06;4982814;28;20764;-68
2023/08/23 08:50:43;;;;;;;2.23;2.23;;;44.00;54.00;;;44.08;25.84;100984.19;5001007;28;20676;-70
2023/08/23 08:53:15;;;;;;;2.93;2.83;;;44.20;53.70;;;44.28;25.54;100982.69;4989232;28;21016;-68
2023/08/23 08:55:47;;;;;;;2.50;2.50;;;44.20;53.30;;;44.48;25.68;100993.03;4974901;28;20666;-71
2023/08/23 08:58:19;;;;;;;2.80;2.80;;;44.40;53.20;;;44.92;24.64;100998.06;5003147;28;20664;-70
2023/08/23 09:00:49;;;;;;;2.73;2.67;;;44.70;52.50;;;45.15;24.37;100996.66;4973038;28;20676;-71
2023/08/23 09:03:19;;;;;;;2.60;2.60;;;45.00;52.10;;;45.15;23.67;100988.38;4974759;28;20748;-71
2023/08/23 09:05:50;;;;;;;2.70;2.60;;;45.00;51.60;;;44.97;24.22;100997.91;4997259;28;21008;-70
2023/08/23 09:08:17;;;;;;;2.27;2.27;;;44.70;51.60;;;44.54;24.43;100995.28;5004121;28;21310;-70
2023/08/23 09:10:45;;;;;;;2.57;2.57;;;44.10;52.10;;;43.87;25.33;100983.97;4989960;28;20678;-70
2023/08/23 09:13:12;;;;;;;2.50;2.40;;;43.30;52.80;;;42.99;26.75;100988.00;4971419;28;20635;-70
2023/08/23 09:15:39;;;;;;;2.00;2.00;;;42.50;53.70;;;41.93;27.69;100978.91;4999690;28;20645;-70
2023/08/23 09:18:06;;;;;;;1.90;1.90;;;41.50;54.20;;;40.70;29.15;100964.47;4978918;28;21182;-70
2023/08/23 09:20:33;;;;;;;2.50;2.50;;;40.30;55.80;;;39.57;31.00;100956.72;4980571;28;20685;-70
2023/08/23 09:23:00;;;;;;;2.70;2.60;;;39.20;57.40;;;38.63;32.22;100952.06;4985882;28;20742;-70
2023/08/23 09:25:27;;;;;;;2.77;2.60;;;38.20;58.90;;;37.85;33.31;100951.31;4975796;28;20649;-69
2023/08/23 09:27:54;;;;;;;2.43;2.33;;;37.40;59.70;;;37.02;34.67;100942.97;4980158;28;21226;-70
2023/08/23 09:30:22;;;;;;;2.53;2.43;;;36.60;60.70;;;36.30;36.10;100947.94;4970033;28;20662;-68
2023/08/23 09:32:49;;;;;;;2.23;2.13;;;35.80;62.10;;;35.87;36.04;100943.81;4999468;28;20647;-70
2023/08/23 09:35:18;;;;;;;2.77;2.57;;;35.30;62.60;;;35.50;36.74;100937.78;5000740;28;20635;-70
2023/08/23 09:37:47;;;;;;;1.83;1.80;;;34.90;63.40;;;35.35;37.23;100940.41;4989075;28;20659;-69
2023/08/23 09:40:20;;;;;;;2.80;2.70;;;34.70;64.40;;;35.08;37.45;100940.53;4970132;28;20642;-69
2023/08/23 09:42:49;;;;;;;2.60;2.50;;;34.40;64.20;;;34.71;37.66;100934.34;4986230;28;20682;-71
2023/08/23 09:45:21;;;;;;;3.63;3.33;;;34.10;64.30;;;34.35;37.98;100933.28;4993893;28;20635;-69
2023/08/23 09:47:58;;;;;;;2.57;2.40;;;33.70;65.20;;;34.23;38.71;100927.19;4990027;28;21055;-69
2023/08/23 09:50:27;;;;;;;2.43;2.33;;;33.50;66.10;;;34.08;40.22;100936.00;4980514;28;20632;-65
2023/08/23 09:53:06;;;;;;;5.80;3.73;;;33.40;67.70;;;33.90;40.40;100932.84;4990414;28;20639;-66
2023/08/23 09:55:34;;;;;;;4.07;3.70;;;33.20;67.70;;;33.72;40.00;100938.59;4975009;28;20640;-65
2023/08/23 09:58:02;;;;;;;6.40;4.93;;;33.00;67.60;;;33.42;40.10;100942.56;4976941;28;20738;-67
2023/08/23 10:00:29;;;;;;;3.23;2.83;;;32.70;67.80;;;33.30;41.06;100933.78;4993642;28;20997;-67
2023/08/23 10:02:57;;;;;;;2.03;1.93;;;32.60;68.40;;;33.28;40.60;100937.81;4972609;28;21181;-67
2023/08/23 10:05:26;;;;;;;2.27;2.17;;;32.50;68.60;;;33.25;40.74;100931.00;4979239;28;20662;-67
2023/08/23 10:07:55;;;;;;;2.13;2.03;;;32.50;68.90;;;33.31;40.13;100930.00;4985506;28;21211;-65
2023/08/23 10:10:23;;;;;;;2.73;2.63;;;32.60;68.60;;;33.43;40.16;100938.81;4976568;28;21208;-68
2023/08/23 10:12:54;;;;;;;2.73;2.53;;;32.70;68.60;;;33.60;39.96;100936.88;4989598;28;21053;-68
2023/08/23 10:15:34;;;;;;;2.40;2.30;;;32.80;68.40;;;33.83;39.88;100930.34;4967317;28;20639;-68
2023/08/23 10:18:04;;;;;;;2.50;2.40;;;33.00;68.20;;;34.16;38.73;100932.81;4970283;28;20645;-68